sensor_id;sensor_type;location;lat;lon;timestamp;P1;durP1;ratioP1;P2;durP2;ratioP2
23052;SDS011;11694;-36.632;-64.318;2022-11-15T00:00:57;28.57;;;4.03;;
23052;SDS011;11694;-36.632;-64.318;2022-11-15T00:03:25;26.57;;;4.87;;
23052;SDS011;11694;-36.632;-64.318;2022-11-15T00:05:53;41.40;;;4.57;;
23052;SDS011;11694;-36.632;-64.318;2022-11-15T00:08:20;22.63;;;3.83;;
23052;SDS011;11694;-36.632;-64.318;2022-11-15T00:11:00;17.17;;;4.27;;
23052;SDS011;11694;-36.632;-64.318;2022-11-15T00:13:29;21.13;;;4.83;;
23052;SDS011;11694;-36.632;-64.318;2022-11-15T00:15:57;23.10;;;5.10;;
23052;SDS011;11694;-36.632;-64.318;2022-11-15T00:18:25;33.40;;;5.43;;
23052;SDS011;11694;-36.632;-64.318;2022-11-15T00:20:53;22.63;;;4.20;;
23052;SDS011;11694;-36.632;-64.318;2022-11-15T00:23:20;30.17;;;5.20;;
23052;SDS011;11694;-36.632;-64.318;2022-11-15T00:25:54;29.37;;;5.30;;
23052;SDS011;11694;-36.632;-64.318;2022-11-15T00:28:23;25.23;;;5.13;;
23052;SDS011;11694;-36.632;-64.318;2022-11-15T00:30:50;19.97;;;4.10;;
23052;SDS011;11694;-36.632;-64.318;2022-11-15T00:33:18;27.37;;;5.10;;
23052;SDS011;11694;-36.632;-64.318;2022-11-15T00:35:45;33.67;;;5.57;;
23052;SDS011;11694;-36.632;-64.318;2022-11-15T00:38:12;32.40;;;4.70;;
23052;SDS011;11694;-36.632;-64.318;2022-11-15T00:40:39;34.60;;;5.47;;
23052;SDS011;11694;-36.632;-64.318;2022-11-15T00:43:07;20.17;;;4.17;;
23052;SDS011;11694;-36.632;-64.318;2022-11-15T00:45:34;39.07;;;5.07;;
23052;SDS011;11694;-36.632;-64.318;2022-11-15T00:48:01;19.07;;;3.33;;
23052;SDS011;11694;-36.632;-64.318;2022-11-15T00:50:28;24.27;;;4.13;;
23052;SDS011;11694;-36.632;-64.318;2022-11-15T00:53:02;17.87;;;2.90;;
23052;SDS011;11694;-36.632;-64.318;2022-11-15T00:55:31;15.47;;;3.13;;
23052;SDS011;11694;-36.632;-64.318;2022-11-15T00:57:58;9.83;;;2.90;;
23052;SDS011;11694;-36.632;-64.318;2022-11-15T01:00:26;16.73;;;2.93;;
23052;SDS011;11694;-36.632;-64.318;2022-11-15T01:02:53;12.90;;;2.73;;
23052;SDS011;11694;-36.632;-64.318;2022-11-15T01:05:21;22.20;;;2.63;;
23052;SDS011;11694;-36.632;-64.318;2022-11-15T01:07:51;14.43;;;2.53;;
23052;SDS011;11694;-36.632;-64.318;2022-11-15T01:10:19;17.97;;;2.93;;
23052;SDS011;11694;-36.632;-64.318;2022-11-15T01:12:47;18.40;;;3.47;;
23052;SDS011;11694;-36.632;-64.318;2022-11-15T01:15:14;13.97;;;2.80;;
23052;SDS011;11694;-36.632;-64.318;2022-11-15T01:17:41;22.17;;;3.20;;
23052;SDS011;11694;-36.632;-64.318;2022-11-15T01:20:09;15.43;;;2.90;;
23052;SDS011;11694;-36.632;-64.318;2022-11-15T01:22:36;11.93;;;2.10;;
23052;SDS011;11694;-36.632;-64.318;2022-11-15T01:25:04;14.37;;;2.30;;
23052;SDS011;11694;-36.632;-64.318;2022-11-15T01:27:31;20.07;;;2.67;;
23052;SDS011;11694;-36.632;-64.318;2022-11-15T01:29:58;13.77;;;2.80;;
23052;SDS011;11694;-36.632;-64.318;2022-11-15T01:32:26;17.03;;;2.47;;
23052;SDS011;11694;-36.632;-64.318;2022-11-15T01:34:53;21.60;;;2.73;;
23052;SDS011;11694;-36.632;-64.318;2022-11-15T01:37:20;10.50;;;2.07;;
23052;SDS011;11694;-36.632;-64.318;2022-11-15T01:39:47;36.13;;;4.50;;
23052;SDS011;11694;-36.632;-64.318;2022-11-15T01:42:14;118.47;;;14.40;;
23052;SDS011;11694;-36.632;-64.318;2022-11-15T01:44:49;107.17;;;13.23;;
23052;SDS011;11694;-36.632;-64.318;2022-11-15T01:47:24;92.80;;;11.37;;
23052;SDS011;11694;-36.632;-64.318;2022-11-15T01:50:14;113.80;;;13.27;;
23052;SDS011;11694;-36.632;-64.318;2022-11-15T01:52:44;132.87;;;16.57;;
23052;SDS011;11694;-36.632;-64.318;2022-11-15T01:57:53;71.10;;;8.37;;
23052;SDS011;11694;-36.632;-64.318;2022-11-15T02:00:23;56.37;;;7.97;;
23052;SDS011;11694;-36.632;-64.318;2022-11-15T02:02:50;48.43;;;6.90;;
23052;SDS011;11694;-36.632;-64.318;2022-11-15T02:05:17;45.13;;;6.40;;
23052;SDS011;11694;-36.632;-64.318;2022-11-15T02:07:44;42.87;;;5.43;;
23052;SDS011;11694;-36.632;-64.318;2022-11-15T02:10:13;24.27;;;3.00;;
23052;SDS011;11694;-36.632;-64.318;2022-11-15T02:12:45;15.70;;;2.23;;
23052;SDS011;11694;-36.632;-64.318;2022-11-15T02:15:13;11.07;;;1.50;;
23052;SDS011;11694;-36.632;-64.318;2022-11-15T02:20:14;4.90;;;0.80;;
23052;SDS011;11694;-36.632;-64.318;2022-11-15T02:29:22;1.33;;;0.57;;
23052;SDS011;11694;-36.632;-64.318;2022-11-15T02:32:09;1.83;;;0.50;;
23052;SDS011;11694;-36.632;-64.318;2022-11-15T02:37:59;1.33;;;0.40;;
23052;SDS011;11694;-36.632;-64.318;2022-11-15T02:41:02;3.50;;;0.93;;
23052;SDS011;11694;-36.632;-64.318;2022-11-15T02:49:13;2.80;;;0.40;;
23052;SDS011;11694;-36.632;-64.318;2022-11-15T02:51:41;1.47;;;0.40;;
23052;SDS011;11694;-36.632;-64.318;2022-11-15T02:54:15;1.60;;;0.37;;
23052;SDS011;11694;-36.632;-64.318;2022-11-15T02:56:47;4.20;;;0.30;;
23052;SDS011;11694;-36.632;-64.318;2022-11-15T03:05:02;19.43;;;1.70;;
23052;SDS011;11694;-36.632;-64.318;2022-11-15T03:16:27;0.83;;;0.20;;
23052;SDS011;11694;-36.632;-64.318;2022-11-15T03:19:12;1.50;;;0.40;;
23052;SDS011;11694;-36.632;-64.318;2022-11-15T03:21:40;4.90;;;0.50;;
23052;SDS011;11694;-36.632;-64.318;2022-11-15T03:24:08;0.73;;;0.20;;
23052;SDS011;11694;-36.632;-64.318;2022-11-15T03:26:36;1.27;;;0.30;;
23052;SDS011;11694;-36.632;-64.318;2022-11-15T03:29:11;12.30;;;1.10;;
23052;SDS011;11694;-36.632;-64.318;2022-11-15T03:31:46;8.80;;;1.03;;
23052;SDS011;11694;-36.632;-64.318;2022-11-15T03:37:01;30.13;;;2.50;;
23052;SDS011;11694;-36.632;-64.318;2022-11-15T03:39:28;39.87;;;4.90;;
23052;SDS011;11694;-36.632;-64.318;2022-11-15T03:42:03;59.50;;;5.97;;
23052;SDS011;11694;-36.632;-64.318;2022-11-15T03:45:02;20.77;;;2.43;;
23052;SDS011;11694;-36.632;-64.318;2022-11-15T03:47:58;11.40;;;1.23;;
23052;SDS011;11694;-36.632;-64.318;2022-11-15T03:50:26;6.87;;;0.90;;
23052;SDS011;11694;-36.632;-64.318;2022-11-15T03:52:54;7.97;;;0.70;;
23052;SDS011;11694;-36.632;-64.318;2022-11-15T03:55:22;0.10;;;0.10;;
23052;SDS011;11694;-36.632;-64.318;2022-11-15T03:57:50;2.67;;;0.13;;
23052;SDS011;11694;-36.632;-64.318;2022-11-15T04:00:19;2.43;;;0.40;;
23052;SDS011;11694;-36.632;-64.318;2022-11-15T04:02:46;1.43;;;0.20;;
23052;SDS011;11694;-36.632;-64.318;2022-11-15T04:05:14;1.43;;;0.27;;
23052;SDS011;11694;-36.632;-64.318;2022-11-15T04:07:41;1.03;;;0.37;;
23052;SDS011;11694;-36.632;-64.318;2022-11-15T04:10:08;1.17;;;0.20;;
23052;SDS011;11694;-36.632;-64.318;2022-11-15T04:12:38;0.20;;;0.20;;
23052;SDS011;11694;-36.632;-64.318;2022-11-15T04:15:09;0.10;;;0.10;;
23052;SDS011;11694;-36.632;-64.318;2022-11-15T04:17:41;0.70;;;0.30;;
23052;SDS011;11694;-36.632;-64.318;2022-11-15T04:20:14;0.53;;;0.20;;
23052;SDS011;11694;-36.632;-64.318;2022-11-15T04:23:00;7.97;;;0.70;;
23052;SDS011;11694;-36.632;-64.318;2022-11-15T04:25:48;5.60;;;0.33;;
23052;SDS011;11694;-36.632;-64.318;2022-11-15T04:28:17;1.20;;;0.40;;
23052;SDS011;11694;-36.632;-64.318;2022-11-15T04:30:45;3.80;;;0.53;;
23052;SDS011;11694;-36.632;-64.318;2022-11-15T04:33:12;0.83;;;0.20;;
23052;SDS011;11694;-36.632;-64.318;2022-11-15T04:35:40;0.40;;;0.30;;
23052;SDS011;11694;-36.632;-64.318;2022-11-15T04:38:08;2.17;;;0.20;;
23052;SDS011;11694;-36.632;-64.318;2022-11-15T04:40:36;8.83;;;0.40;;
23052;SDS011;11694;-36.632;-64.318;2022-11-15T04:43:04;2.83;;;0.60;;
23052;SDS011;11694;-36.632;-64.318;2022-11-15T04:45:34;1.97;;;0.43;;
23052;SDS011;11694;-36.632;-64.318;2022-11-15T04:48:01;1.77;;;0.40;;
23052;SDS011;11694;-36.632;-64.318;2022-11-15T04:50:29;6.40;;;0.50;;
23052;SDS011;11694;-36.632;-64.318;2022-11-15T04:52:56;6.47;;;0.63;;
23052;SDS011;11694;-36.632;-64.318;2022-11-15T04:55:23;4.83;;;0.70;;
23052;SDS011;11694;-36.632;-64.318;2022-11-15T04:57:56;2.13;;;0.30;;
23052;SDS011;11694;-36.632;-64.318;2022-11-15T05:00:25;9.10;;;0.80;;
23052;SDS011;11694;-36.632;-64.318;2022-11-15T05:02:53;1.80;;;0.40;;
23052;SDS011;11694;-36.632;-64.318;2022-11-15T05:05:39;3.30;;;0.40;;
23052;SDS011;11694;-36.632;-64.318;2022-11-15T05:08:06;0.70;;;0.20;;
23052;SDS011;11694;-36.632;-64.318;2022-11-15T05:10:34;2.47;;;0.43;;
23052;SDS011;11694;-36.632;-64.318;2022-11-15T05:13:01;0.87;;;0.33;;
23052;SDS011;11694;-36.632;-64.318;2022-11-15T05:15:28;1.23;;;0.30;;
23052;SDS011;11694;-36.632;-64.318;2022-11-15T05:17:59;2.57;;;0.40;;
23052;SDS011;11694;-36.632;-64.318;2022-11-15T05:20:26;0.50;;;0.23;;
23052;SDS011;11694;-36.632;-64.318;2022-11-15T05:22:53;3.83;;;0.63;;
23052;SDS011;11694;-36.632;-64.318;2022-11-15T05:25:23;2.50;;;0.33;;
23052;SDS011;11694;-36.632;-64.318;2022-11-15T05:27:50;2.47;;;0.30;;
23052;SDS011;11694;-36.632;-64.318;2022-11-15T05:30:18;1.40;;;0.40;;
23052;SDS011;11694;-36.632;-64.318;2022-11-15T05:32:45;31.57;;;3.50;;
23052;SDS011;11694;-36.632;-64.318;2022-11-15T05:35:15;8.67;;;0.77;;
23052;SDS011;11694;-36.632;-64.318;2022-11-15T05:37:50;4.97;;;0.43;;
23052;SDS011;11694;-36.632;-64.318;2022-11-15T05:40:17;2.80;;;0.30;;
23052;SDS011;11694;-36.632;-64.318;2022-11-15T05:42:44;2.93;;;0.27;;
23052;SDS011;11694;-36.632;-64.318;2022-11-15T05:45:12;1.27;;;0.10;;
23052;SDS011;11694;-36.632;-64.318;2022-11-15T05:47:40;2.03;;;0.30;;
23052;SDS011;11694;-36.632;-64.318;2022-11-15T05:50:09;5.20;;;0.57;;
23052;SDS011;11694;-36.632;-64.318;2022-11-15T05:55:33;0.50;;;0.20;;
23052;SDS011;11694;-36.632;-64.318;2022-11-15T05:58:00;0.10;;;0.10;;
23052;SDS011;11694;-36.632;-64.318;2022-11-15T06:03:25;2.40;;;0.20;;
23052;SDS011;11694;-36.632;-64.318;2022-11-15T06:05:52;0.13;;;0.13;;
23052;SDS011;11694;-36.632;-64.318;2022-11-15T06:12:02;1.03;;;0.30;;
23052;SDS011;11694;-36.632;-64.318;2022-11-15T06:21:27;1.17;;;0.23;;
23052;SDS011;11694;-36.632;-64.318;2022-11-15T06:23:54;0.23;;;0.20;;
23052;SDS011;11694;-36.632;-64.318;2022-11-15T06:26:21;1.23;;;0.10;;
23052;SDS011;11694;-36.632;-64.318;2022-11-15T06:28:48;0.30;;;0.20;;
23052;SDS011;11694;-36.632;-64.318;2022-11-15T06:31:15;0.60;;;0.47;;
23052;SDS011;11694;-36.632;-64.318;2022-11-15T06:33:42;0.77;;;0.37;;
23052;SDS011;11694;-36.632;-64.318;2022-11-15T06:36:10;2.80;;;0.20;;
23052;SDS011;11694;-36.632;-64.318;2022-11-15T06:38:42;0.23;;;0.20;;
23052;SDS011;11694;-36.632;-64.318;2022-11-15T06:41:10;4.70;;;0.20;;
23052;SDS011;11694;-36.632;-64.318;2022-11-15T06:43:38;0.80;;;0.20;;
23052;SDS011;11694;-36.632;-64.318;2022-11-15T06:46:06;0.10;;;0.10;;
23052;SDS011;11694;-36.632;-64.318;2022-11-15T06:48:34;0.30;;;0.30;;
23052;SDS011;11694;-36.632;-64.318;2022-11-15T06:51:02;0.23;;;0.20;;
23052;SDS011;11694;-36.632;-64.318;2022-11-15T06:53:30;2.20;;;0.20;;
23052;SDS011;11694;-36.632;-64.318;2022-11-15T06:55:59;3.13;;;0.27;;
23052;SDS011;11694;-36.632;-64.318;2022-11-15T06:58:27;0.60;;;0.30;;
23052;SDS011;11694;-36.632;-64.318;2022-11-15T07:00:58;0.83;;;0.20;;
23052;SDS011;11694;-36.632;-64.318;2022-11-15T07:03:26;3.60;;;0.20;;
23052;SDS011;11694;-36.632;-64.318;2022-11-15T07:05:53;0.40;;;0.20;;
23052;SDS011;11694;-36.632;-64.318;2022-11-15T07:08:22;1.53;;;0.20;;
23052;SDS011;11694;-36.632;-64.318;2022-11-15T07:10:50;0.50;;;0.30;;
23052;SDS011;11694;-36.632;-64.318;2022-11-15T07:13:17;0.90;;;0.30;;
23052;SDS011;11694;-36.632;-64.318;2022-11-15T07:15:44;4.57;;;0.50;;
23052;SDS011;11694;-36.632;-64.318;2022-11-15T07:18:12;1.00;;;0.40;;
23052;SDS011;11694;-36.632;-64.318;2022-11-15T07:26:38;0.53;;;0.20;;
23052;SDS011;11694;-36.632;-64.318;2022-11-15T07:29:08;2.70;;;0.40;;
23052;SDS011;11694;-36.632;-64.318;2022-11-15T07:31:35;1.07;;;0.40;;
23052;SDS011;11694;-36.632;-64.318;2022-11-15T07:34:02;0.30;;;0.30;;
23052;SDS011;11694;-36.632;-64.318;2022-11-15T07:36:29;2.10;;;0.30;;
23052;SDS011;11694;-36.632;-64.318;2022-11-15T07:38:56;0.97;;;0.50;;
23052;SDS011;11694;-36.632;-64.318;2022-11-15T07:41:24;0.20;;;0.20;;
23052;SDS011;11694;-36.632;-64.318;2022-11-15T07:43:51;0.20;;;0.20;;
23052;SDS011;11694;-36.632;-64.318;2022-11-15T07:46:18;1.10;;;0.20;;
23052;SDS011;11694;-36.632;-64.318;2022-11-15T07:48:45;0.50;;;0.30;;
23052;SDS011;11694;-36.632;-64.318;2022-11-15T07:51:13;1.33;;;0.30;;
23052;SDS011;11694;-36.632;-64.318;2022-11-15T07:53:44;1.70;;;0.20;;
23052;SDS011;11694;-36.632;-64.318;2022-11-15T07:56:11;17.50;;;1.80;;
23052;SDS011;11694;-36.632;-64.318;2022-11-15T07:58:39;12.57;;;2.07;;
23052;SDS011;11694;-36.632;-64.318;2022-11-15T08:01:06;12.40;;;1.20;;
23052;SDS011;11694;-36.632;-64.318;2022-11-15T08:03:35;10.43;;;1.83;;
23052;SDS011;11694;-36.632;-64.318;2022-11-15T08:06:02;10.27;;;1.63;;
23052;SDS011;11694;-36.632;-64.318;2022-11-15T08:08:30;3.17;;;1.37;;
23052;SDS011;11694;-36.632;-64.318;2022-11-15T08:10:57;4.90;;;1.13;;
23052;SDS011;11694;-36.632;-64.318;2022-11-15T08:13:24;4.40;;;1.23;;
23052;SDS011;11694;-36.632;-64.318;2022-11-15T08:15:52;7.17;;;1.00;;
23052;SDS011;11694;-36.632;-64.318;2022-11-15T08:18:23;4.13;;;0.80;;
23052;SDS011;11694;-36.632;-64.318;2022-11-15T08:20:50;4.47;;;0.80;;
23052;SDS011;11694;-36.632;-64.318;2022-11-15T08:23:17;0.70;;;0.60;;
23052;SDS011;11694;-36.632;-64.318;2022-11-15T08:25:44;0.93;;;0.63;;
23052;SDS011;11694;-36.632;-64.318;2022-11-15T08:28:11;2.37;;;0.80;;
23052;SDS011;11694;-36.632;-64.318;2022-11-15T08:30:39;1.87;;;0.60;;
23052;SDS011;11694;-36.632;-64.318;2022-11-15T08:33:12;1.23;;;0.80;;
23052;SDS011;11694;-36.632;-64.318;2022-11-15T08:35:42;2.00;;;0.73;;
23052;SDS011;11694;-36.632;-64.318;2022-11-15T08:38:13;3.40;;;0.60;;
23052;SDS011;11694;-36.632;-64.318;2022-11-15T08:40:41;1.43;;;0.60;;
23052;SDS011;11694;-36.632;-64.318;2022-11-15T08:43:08;1.00;;;0.50;;
23052;SDS011;11694;-36.632;-64.318;2022-11-15T08:45:35;0.97;;;0.60;;
23052;SDS011;11694;-36.632;-64.318;2022-11-15T08:48:05;1.90;;;0.83;;
23052;SDS011;11694;-36.632;-64.318;2022-11-15T08:50:34;1.57;;;0.80;;
23052;SDS011;11694;-36.632;-64.318;2022-11-15T08:53:09;1.73;;;0.80;;
23052;SDS011;11694;-36.632;-64.318;2022-11-15T08:55:38;5.80;;;1.40;;
23052;SDS011;11694;-36.632;-64.318;2022-11-15T08:58:06;2.10;;;1.00;;
23052;SDS011;11694;-36.632;-64.318;2022-11-15T09:00:33;4.33;;;1.10;;
23052;SDS011;11694;-36.632;-64.318;2022-11-15T09:03:03;2.93;;;1.10;;
23052;SDS011;11694;-36.632;-64.318;2022-11-15T09:05:32;3.67;;;1.30;;
23052;SDS011;11694;-36.632;-64.318;2022-11-15T09:08:02;24.67;;;2.73;;
23052;SDS011;11694;-36.632;-64.318;2022-11-15T09:10:29;18.47;;;2.57;;
23052;SDS011;11694;-36.632;-64.318;2022-11-15T09:12:56;13.63;;;2.40;;
23052;SDS011;11694;-36.632;-64.318;2022-11-15T09:15:23;2.70;;;1.17;;
23052;SDS011;11694;-36.632;-64.318;2022-11-15T09:17:51;2.60;;;1.00;;
23052;SDS011;11694;-36.632;-64.318;2022-11-15T09:20:18;7.10;;;1.20;;
23052;SDS011;11694;-36.632;-64.318;2022-11-15T09:22:45;4.97;;;1.40;;
23052;SDS011;11694;-36.632;-64.318;2022-11-15T09:25:12;2.93;;;1.27;;
23052;SDS011;11694;-36.632;-64.318;2022-11-15T09:27:39;3.43;;;1.10;;
23052;SDS011;11694;-36.632;-64.318;2022-11-15T09:30:06;1.83;;;1.00;;
23052;SDS011;11694;-36.632;-64.318;2022-11-15T09:32:33;3.13;;;1.23;;
23052;SDS011;11694;-36.632;-64.318;2022-11-15T09:35:01;4.30;;;1.33;;
23052;SDS011;11694;-36.632;-64.318;2022-11-15T09:37:28;2.70;;;0.90;;
23052;SDS011;11694;-36.632;-64.318;2022-11-15T09:39:57;3.23;;;1.03;;
23052;SDS011;11694;-36.632;-64.318;2022-11-15T09:50:38;2.50;;;1.63;;
23052;SDS011;11694;-36.632;-64.318;2022-11-15T09:53:11;2.30;;;1.70;;
23052;SDS011;11694;-36.632;-64.318;2022-11-15T09:55:54;2.13;;;1.73;;
23052;SDS011;11694;-36.632;-64.318;2022-11-15T10:00:54;2.40;;;1.57;;
23052;SDS011;11694;-36.632;-64.318;2022-11-15T10:03:27;1.67;;;1.57;;
23052;SDS011;11694;-36.632;-64.318;2022-11-15T10:06:00;4.60;;;1.50;;
23052;SDS011;11694;-36.632;-64.318;2022-11-15T10:08:40;5.80;;;1.67;;
23052;SDS011;11694;-36.632;-64.318;2022-11-15T10:11:25;2.23;;;1.50;;
23052;SDS011;11694;-36.632;-64.318;2022-11-15T10:13:57;1.70;;;1.60;;
23052;SDS011;11694;-36.632;-64.318;2022-11-15T10:25:37;3.77;;;1.50;;
23052;SDS011;11694;-36.632;-64.318;2022-11-15T10:27:50;1.93;;;1.40;;
23052;SDS011;11694;-36.632;-64.318;2022-11-15T10:30:30;4.63;;;1.60;;
23052;SDS011;11694;-36.632;-64.318;2022-11-15T10:43:44;3.70;;;1.47;;
23052;SDS011;11694;-36.632;-64.318;2022-11-15T10:46:29;2.50;;;1.30;;
23052;SDS011;11694;-36.632;-64.318;2022-11-15T10:57:07;2.97;;;1.13;;
23052;SDS011;11694;-36.632;-64.318;2022-11-15T10:59:44;3.10;;;1.27;;
23052;SDS011;11694;-36.632;-64.318;2022-11-15T11:04:53;3.43;;;1.10;;
23052;SDS011;11694;-36.632;-64.318;2022-11-15T11:07:21;2.97;;;1.17;;
23052;SDS011;11694;-36.632;-64.318;2022-11-15T11:10:27;1.40;;;0.90;;
23052;SDS011;11694;-36.632;-64.318;2022-11-15T11:12:47;3.03;;;0.80;;
23052;SDS011;11694;-36.632;-64.318;2022-11-15T11:15:14;1.33;;;0.90;;
23052;SDS011;11694;-36.632;-64.318;2022-11-15T11:25:56;1.37;;;0.83;;
23052;SDS011;11694;-36.632;-64.318;2022-11-15T11:37:24;1.88;;;0.95;;
23052;SDS011;11694;-36.632;-64.318;2022-11-15T11:48:07;4.15;;;0.90;;
23052;SDS011;11694;-36.632;-64.318;2022-11-15T11:50:49;1.65;;;0.80;;
23052;SDS011;11694;-36.632;-64.318;2022-11-15T11:53:24;4.05;;;0.80;;
23052;SDS011;11694;-36.632;-64.318;2022-11-15T11:56:24;2.85;;;0.80;;
23052;SDS011;11694;-36.632;-64.318;2022-11-15T11:59:05;2.70;;;0.68;;
23052;SDS011;11694;-36.632;-64.318;2022-11-15T12:01:37;0.60;;;0.60;;
23052;SDS011;11694;-36.632;-64.318;2022-11-15T12:07:16;1.63;;;0.60;;
23052;SDS011;11694;-36.632;-64.318;2022-11-15T12:12:43;3.40;;;0.55;;
23052;SDS011;11694;-36.632;-64.318;2022-11-15T12:15:39;4.82;;;1.02;;
23052;SDS011;11694;-36.632;-64.318;2022-11-15T12:18:25;3.05;;;0.90;;
23052;SDS011;11694;-36.632;-64.318;2022-11-15T12:20:54;1.33;;;0.90;;
23052;SDS011;11694;-36.632;-64.318;2022-11-15T12:23:30;1.40;;;0.90;;
23052;SDS011;11694;-36.632;-64.318;2022-11-15T12:31:16;2.90;;;0.80;;
23052;SDS011;11694;-36.632;-64.318;2022-11-15T12:34:01;1.23;;;0.60;;
23052;SDS011;11694;-36.632;-64.318;2022-11-15T12:36:45;1.25;;;0.60;;
23052;SDS011;11694;-36.632;-64.318;2022-11-15T12:39:14;1.33;;;0.60;;
23052;SDS011;11694;-36.632;-64.318;2022-11-15T12:41:42;4.43;;;0.80;;
23052;SDS011;11694;-36.632;-64.318;2022-11-15T12:44:11;3.13;;;0.60;;
23052;SDS011;11694;-36.632;-64.318;2022-11-15T12:47:03;2.58;;;0.60;;
23052;SDS011;11694;-36.632;-64.318;2022-11-15T12:49:48;0.75;;;0.50;;
23052;SDS011;11694;-36.632;-64.318;2022-11-15T12:52:15;2.28;;;0.50;;
23052;SDS011;11694;-36.632;-64.318;2022-11-15T13:00:00;1.33;;;1.00;;
23052;SDS011;11694;-36.632;-64.318;2022-11-15T13:02:35;6.82;;;2.20;;
23052;SDS011;11694;-36.632;-64.318;2022-11-15T13:13:02;5.40;;;1.15;;
23052;SDS011;11694;-36.632;-64.318;2022-11-15T13:15:45;1.08;;;0.88;;
23052;SDS011;11694;-36.632;-64.318;2022-11-15T13:21:02;3.38;;;1.00;;
23052;SDS011;11694;-36.632;-64.318;2022-11-15T13:23:53;1.17;;;0.88;;
23052;SDS011;11694;-36.632;-64.318;2022-11-15T13:26:21;0.85;;;0.80;;
23052;SDS011;11694;-36.632;-64.318;2022-11-15T13:28:49;2.90;;;0.70;;
23052;SDS011;11694;-36.632;-64.318;2022-11-15T13:33:57;1.27;;;0.65;;
23052;SDS011;11694;-36.632;-64.318;2022-11-15T13:36:47;1.52;;;0.60;;
23052;SDS011;11694;-36.632;-64.318;2022-11-15T13:39:35;1.52;;;0.70;;
23052;SDS011;11694;-36.632;-64.318;2022-11-15T13:42:13;0.70;;;0.40;;
23052;SDS011;11694;-36.632;-64.318;2022-11-15T13:44:54;0.55;;;0.55;;
23052;SDS011;11694;-36.632;-64.318;2022-11-15T13:47:26;2.63;;;0.45;;
23052;SDS011;11694;-36.632;-64.318;2022-11-15T13:49:57;1.85;;;0.65;;
23052;SDS011;11694;-36.632;-64.318;2022-11-15T13:52:33;1.88;;;0.40;;
23052;SDS011;11694;-36.632;-64.318;2022-11-15T13:55:08;1.90;;;0.60;;
23052;SDS011;11694;-36.632;-64.318;2022-11-15T13:57:39;5.38;;;0.70;;
23052;SDS011;11694;-36.632;-64.318;2022-11-15T14:00:29;3.58;;;0.55;;
23052;SDS011;11694;-36.632;-64.318;2022-11-15T14:06:08;1.58;;;0.50;;
23052;SDS011;11694;-36.632;-64.318;2022-11-15T14:09:00;1.25;;;0.70;;
23052;SDS011;11694;-36.632;-64.318;2022-11-15T14:11:37;1.02;;;0.57;;
23052;SDS011;11694;-36.632;-64.318;2022-11-15T14:14:25;4.88;;;1.05;;
23052;SDS011;11694;-36.632;-64.318;2022-11-15T14:16:58;1.88;;;0.50;;
23052;SDS011;11694;-36.632;-64.318;2022-11-15T14:22:09;0.30;;;0.30;;
23052;SDS011;11694;-36.632;-64.318;2022-11-15T14:24:36;1.15;;;0.55;;
23052;SDS011;11694;-36.632;-64.318;2022-11-15T14:29:46;0.77;;;0.40;;
23052;SDS011;11694;-36.632;-64.318;2022-11-15T14:32:15;3.05;;;0.55;;
23052;SDS011;11694;-36.632;-64.318;2022-11-15T14:34:43;3.33;;;0.50;;
23052;SDS011;11694;-36.632;-64.318;2022-11-15T14:37:22;0.45;;;0.38;;
23052;SDS011;11694;-36.632;-64.318;2022-11-15T14:39:51;4.35;;;0.40;;
23052;SDS011;11694;-36.632;-64.318;2022-11-15T14:42:20;2.20;;;0.40;;
23052;SDS011;11694;-36.632;-64.318;2022-11-15T14:44:48;1.58;;;0.60;;
23052;SDS011;11694;-36.632;-64.318;2022-11-15T14:47:15;0.40;;;0.38;;
23052;SDS011;11694;-36.632;-64.318;2022-11-15T14:49:42;2.53;;;0.40;;
23052;SDS011;11694;-36.632;-64.318;2022-11-15T14:52:29;2.47;;;1.67;;
23052;SDS011;11694;-36.632;-64.318;2022-11-15T14:55:01;0.30;;;0.30;;
23052;SDS011;11694;-36.632;-64.318;2022-11-15T14:57:30;2.55;;;0.40;;
23052;SDS011;11694;-36.632;-64.318;2022-11-15T14:59:57;2.83;;;0.50;;
23052;SDS011;11694;-36.632;-64.318;2022-11-15T15:02:25;0.40;;;0.40;;
23052;SDS011;11694;-36.632;-64.318;2022-11-15T15:04:53;3.70;;;0.57;;
23052;SDS011;11694;-36.632;-64.318;2022-11-15T15:07:20;6.95;;;1.00;;
23052;SDS011;11694;-36.632;-64.318;2022-11-15T15:09:48;0.20;;;0.20;;
23052;SDS011;11694;-36.632;-64.318;2022-11-15T15:12:16;19.45;;;2.97;;
23052;SDS011;11694;-36.632;-64.318;2022-11-15T15:14:45;0.50;;;0.50;;
23052;SDS011;11694;-36.632;-64.318;2022-11-15T15:17:14;0.65;;;0.40;;
23052;SDS011;11694;-36.632;-64.318;2022-11-15T15:19:42;0.63;;;0.47;;
23052;SDS011;11694;-36.632;-64.318;2022-11-15T15:22:13;3.80;;;0.40;;
23052;SDS011;11694;-36.632;-64.318;2022-11-15T15:24:43;0.40;;;0.30;;
23052;SDS011;11694;-36.632;-64.318;2022-11-15T15:27:11;4.15;;;0.65;;
23052;SDS011;11694;-36.632;-64.318;2022-11-15T15:29:39;0.30;;;0.30;;
23052;SDS011;11694;-36.632;-64.318;2022-11-15T15:32:06;0.40;;;0.30;;
23052;SDS011;11694;-36.632;-64.318;2022-11-15T15:34:34;1.95;;;0.30;;
23052;SDS011;11694;-36.632;-64.318;2022-11-15T15:37:08;2.15;;;0.40;;
23052;SDS011;11694;-36.632;-64.318;2022-11-15T15:39:52;3.97;;;0.77;;
23052;SDS011;11694;-36.632;-64.318;2022-11-15T15:42:20;1.77;;;0.30;;
23052;SDS011;11694;-36.632;-64.318;2022-11-15T15:44:48;2.50;;;0.70;;
23052;SDS011;11694;-36.632;-64.318;2022-11-15T15:47:20;1.95;;;0.30;;
23052;SDS011;11694;-36.632;-64.318;2022-11-15T15:49:48;17.45;;;2.55;;
23052;SDS011;11694;-36.632;-64.318;2022-11-15T15:52:16;4.85;;;0.80;;
23052;SDS011;11694;-36.632;-64.318;2022-11-15T15:54:44;1.05;;;0.30;;
23052;SDS011;11694;-36.632;-64.318;2022-11-15T15:57:12;1.30;;;0.55;;
23052;SDS011;11694;-36.632;-64.318;2022-11-15T15:59:40;1.17;;;0.30;;
23052;SDS011;11694;-36.632;-64.318;2022-11-15T16:02:11;5.60;;;1.00;;
23052;SDS011;11694;-36.632;-64.318;2022-11-15T16:04:41;3.20;;;0.40;;
23052;SDS011;11694;-36.632;-64.318;2022-11-15T16:07:13;2.63;;;0.50;;
23052;SDS011;11694;-36.632;-64.318;2022-11-15T16:09:47;4.65;;;0.40;;
23052;SDS011;11694;-36.632;-64.318;2022-11-15T16:12:33;2.03;;;0.38;;
23052;SDS011;11694;-36.632;-64.318;2022-11-15T16:15:01;0.28;;;0.25;;
23052;SDS011;11694;-36.632;-64.318;2022-11-15T16:17:30;1.70;;;0.22;;
23052;SDS011;11694;-36.632;-64.318;2022-11-15T16:20:00;0.65;;;0.30;;
23052;SDS011;11694;-36.632;-64.318;2022-11-15T16:22:28;0.60;;;0.50;;
23052;SDS011;11694;-36.632;-64.318;2022-11-15T16:24:55;7.45;;;1.13;;
23052;SDS011;11694;-36.632;-64.318;2022-11-15T16:27:22;89.72;;;10.98;;
23052;SDS011;11694;-36.632;-64.318;2022-11-15T16:29:49;2.88;;;0.80;;
23052;SDS011;11694;-36.632;-64.318;2022-11-15T16:32:17;15.20;;;2.60;;
23052;SDS011;11694;-36.632;-64.318;2022-11-15T16:34:44;17.33;;;2.65;;
23052;SDS011;11694;-36.632;-64.318;2022-11-15T16:37:18;68.00;;;10.07;;
23052;SDS011;11694;-36.632;-64.318;2022-11-15T16:39:48;5.18;;;1.30;;
23052;SDS011;11694;-36.632;-64.318;2022-11-15T16:45:46;0.40;;;0.30;;
23052;SDS011;11694;-36.632;-64.318;2022-11-15T16:48:26;44.33;;;6.95;;
23052;SDS011;11694;-36.632;-64.318;2022-11-15T16:50:55;2.22;;;0.40;;
23052;SDS011;11694;-36.632;-64.318;2022-11-15T16:53:23;11.93;;;1.88;;
23052;SDS011;11694;-36.632;-64.318;2022-11-15T16:55:52;83.85;;;10.55;;
23052;SDS011;11694;-36.632;-64.318;2022-11-15T16:58:20;22.50;;;3.15;;
23052;SDS011;11694;-36.632;-64.318;2022-11-15T17:00:51;28.35;;;5.28;;
23052;SDS011;11694;-36.632;-64.318;2022-11-15T17:03:20;54.67;;;7.20;;
23052;SDS011;11694;-36.632;-64.318;2022-11-15T17:05:49;87.80;;;11.15;;
23052;SDS011;11694;-36.632;-64.318;2022-11-15T17:08:17;58.55;;;8.38;;
23052;SDS011;11694;-36.632;-64.318;2022-11-15T17:10:46;9.50;;;1.20;;
23052;SDS011;11694;-36.632;-64.318;2022-11-15T17:13:13;8.55;;;0.95;;
23052;SDS011;11694;-36.632;-64.318;2022-11-15T17:15:40;3.47;;;0.93;;